sensor_id;sensor_type;location;lat;lon;timestamp;P1;durP1;ratioP1;P2;durP2;ratioP2
59970;SDS011;45825;45.434;9.116;2022-12-18T00:02:03;50.78;;;27.63;;
59970;SDS011;45825;45.434;9.116;2022-12-18T00:04:28;48.60;;;27.75;;
59970;SDS011;45825;45.434;9.116;2022-12-18T00:06:54;49.72;;;27.30;;
59970;SDS011;45825;45.434;9.116;2022-12-18T00:09:19;46.42;;;26.58;;
59970;SDS011;45825;45.434;9.116;2022-12-18T00:11:45;47.22;;;26.90;;
59970;SDS011;45825;45.434;9.116;2022-12-18T00:14:11;50.08;;;29.95;;
59970;SDS011;45825;45.434;9.116;2022-12-18T00:16:37;52.25;;;30.02;;
59970;SDS011;45825;45.434;9.116;2022-12-18T00:19:04;49.63;;;29.63;;
59970;SDS011;45825;45.434;9.116;2022-12-18T00:21:30;46.97;;;27.10;;
59970;SDS011;45825;45.434;9.116;2022-12-18T00:23:58;47.40;;;26.45;;
59970;SDS011;45825;45.434;9.116;2022-12-18T00:26:26;44.67;;;26.73;;
59970;SDS011;45825;45.434;9.116;2022-12-18T00:28:58;47.03;;;26.33;;
59970;SDS011;45825;45.434;9.116;2022-12-18T00:31:25;48.78;;;27.73;;
59970;SDS011;45825;45.434;9.116;2022-12-18T00:33:50;47.03;;;27.58;;
59970;SDS011;45825;45.434;9.116;2022-12-18T00:36:17;47.67;;;25.58;;
59970;SDS011;45825;45.434;9.116;2022-12-18T00:38:44;43.03;;;26.42;;
59970;SDS011;45825;45.434;9.116;2022-12-18T00:41:11;49.95;;;28.10;;
59970;SDS011;45825;45.434;9.116;2022-12-18T00:43:37;70.05;;;30.70;;
59970;SDS011;45825;45.434;9.116;2022-12-18T00:46:03;68.20;;;32.70;;
59970;SDS011;45825;45.434;9.116;2022-12-18T00:48:29;68.40;;;32.75;;
59970;SDS011;45825;45.434;9.116;2022-12-18T00:50:55;69.22;;;34.17;;
59970;SDS011;45825;45.434;9.116;2022-12-18T00:53:20;66.78;;;33.65;;
59970;SDS011;45825;45.434;9.116;2022-12-18T00:55:46;63.45;;;33.70;;
59970;SDS011;45825;45.434;9.116;2022-12-18T00:58:12;65.55;;;32.90;;
59970;SDS011;45825;45.434;9.116;2022-12-18T01:00:38;58.78;;;32.63;;
59970;SDS011;45825;45.434;9.116;2022-12-18T01:03:04;64.10;;;34.35;;
59970;SDS011;45825;45.434;9.116;2022-12-18T01:05:29;67.25;;;33.30;;
59970;SDS011;45825;45.434;9.116;2022-12-18T01:07:55;59.35;;;34.15;;
59970;SDS011;45825;45.434;9.116;2022-12-18T01:10:21;57.58;;;33.25;;
59970;SDS011;45825;45.434;9.116;2022-12-18T01:12:47;56.42;;;33.60;;
59970;SDS011;45825;45.434;9.116;2022-12-18T01:15:13;64.28;;;33.08;;
59970;SDS011;45825;45.434;9.116;2022-12-18T01:17:39;55.65;;;32.95;;
59970;SDS011;45825;45.434;9.116;2022-12-18T01:20:05;57.47;;;33.05;;
59970;SDS011;45825;45.434;9.116;2022-12-18T01:22:31;55.70;;;32.70;;
59970;SDS011;45825;45.434;9.116;2022-12-18T01:24:56;63.95;;;33.17;;
59970;SDS011;45825;45.434;9.116;2022-12-18T01:27:21;58.17;;;31.92;;
59970;SDS011;45825;45.434;9.116;2022-12-18T01:29:47;57.95;;;31.33;;
59970;SDS011;45825;45.434;9.116;2022-12-18T01:32:12;56.72;;;33.40;;
59970;SDS011;45825;45.434;9.116;2022-12-18T01:34:37;53.85;;;31.50;;
59970;SDS011;45825;45.434;9.116;2022-12-18T01:37:03;54.15;;;32.03;;
59970;SDS011;45825;45.434;9.116;2022-12-18T01:39:30;52.42;;;31.85;;
59970;SDS011;45825;45.434;9.116;2022-12-18T01:41:57;55.58;;;32.28;;
59970;SDS011;45825;45.434;9.116;2022-12-18T01:47:33;52.58;;;30.95;;
59970;SDS011;45825;45.434;9.116;2022-12-18T01:50:52;56.40;;;32.03;;
59970;SDS011;45825;45.434;9.116;2022-12-18T01:55:42;60.30;;;31.17;;
59970;SDS011;45825;45.434;9.116;2022-12-18T01:58:11;52.80;;;32.60;;
59970;SDS011;45825;45.434;9.116;2022-12-18T02:00:37;58.85;;;31.92;;
59970;SDS011;45825;45.434;9.116;2022-12-18T02:03:02;57.92;;;32.17;;
59970;SDS011;45825;45.434;9.116;2022-12-18T02:10:29;54.78;;;32.42;;
59970;SDS011;45825;45.434;9.116;2022-12-18T02:13:26;58.30;;;32.85;;
59970;SDS011;45825;45.434;9.116;2022-12-18T02:15:56;52.30;;;30.90;;
59970;SDS011;45825;45.434;9.116;2022-12-18T02:18:38;53.45;;;31.08;;
59970;SDS011;45825;45.434;9.116;2022-12-18T02:21:09;63.30;;;32.72;;
59970;SDS011;45825;45.434;9.116;2022-12-18T02:27:04;71.28;;;36.17;;
59970;SDS011;45825;45.434;9.116;2022-12-18T02:29:37;68.57;;;35.30;;
59970;SDS011;45825;45.434;9.116;2022-12-18T02:32:12;71.03;;;35.45;;
59970;SDS011;45825;45.434;9.116;2022-12-18T02:34:41;64.60;;;33.38;;
59970;SDS011;45825;45.434;9.116;2022-12-18T02:37:09;60.90;;;33.88;;
59970;SDS011;45825;45.434;9.116;2022-12-18T02:39:38;64.70;;;32.58;;
59970;SDS011;45825;45.434;9.116;2022-12-18T02:42:06;62.90;;;34.17;;
59970;SDS011;45825;45.434;9.116;2022-12-18T02:44:33;64.13;;;32.60;;
59970;SDS011;45825;45.434;9.116;2022-12-18T02:47:00;60.95;;;32.08;;
59970;SDS011;45825;45.434;9.116;2022-12-18T02:49:40;68.18;;;30.98;;
59970;SDS011;45825;45.434;9.116;2022-12-18T02:52:31;60.33;;;31.50;;
59970;SDS011;45825;45.434;9.116;2022-12-18T03:00:28;53.28;;;30.40;;
59970;SDS011;45825;45.434;9.116;2022-12-18T03:05:47;55.20;;;31.38;;
59970;SDS011;45825;45.434;9.116;2022-12-18T03:08:23;64.75;;;31.80;;
59970;SDS011;45825;45.434;9.116;2022-12-18T03:11:03;52.45;;;30.92;;
59970;SDS011;45825;45.434;9.116;2022-12-18T03:13:53;58.25;;;32.70;;
59970;SDS011;45825;45.434;9.116;2022-12-18T03:16:22;70.28;;;33.80;;
59970;SDS011;45825;45.434;9.116;2022-12-18T03:18:58;66.30;;;32.33;;
59970;SDS011;45825;45.434;9.116;2022-12-18T03:21:33;56.08;;;31.45;;
59970;SDS011;45825;45.434;9.116;2022-12-18T03:24:04;61.70;;;33.03;;
59970;SDS011;45825;45.434;9.116;2022-12-18T03:26:32;60.15;;;34.08;;
59970;SDS011;45825;45.434;9.116;2022-12-18T03:29:02;64.63;;;32.67;;
59970;SDS011;45825;45.434;9.116;2022-12-18T03:31:33;66.18;;;32.97;;
59970;SDS011;45825;45.434;9.116;2022-12-18T03:33:58;66.55;;;33.55;;
59970;SDS011;45825;45.434;9.116;2022-12-18T03:36:29;68.00;;;34.42;;
59970;SDS011;45825;45.434;9.116;2022-12-18T03:38:54;70.82;;;35.55;;
59970;SDS011;45825;45.434;9.116;2022-12-18T03:41:29;71.47;;;36.33;;
59970;SDS011;45825;45.434;9.116;2022-12-18T03:44:12;73.13;;;33.42;;
59970;SDS011;45825;45.434;9.116;2022-12-18T03:54:44;61.17;;;32.20;;
59970;SDS011;45825;45.434;9.116;2022-12-18T03:57:18;59.95;;;31.50;;
59970;SDS011;45825;45.434;9.116;2022-12-18T03:59:47;62.63;;;32.42;;
59970;SDS011;45825;45.434;9.116;2022-12-18T04:02:16;60.78;;;31.83;;
59970;SDS011;45825;45.434;9.116;2022-12-18T04:04:42;59.17;;;31.88;;
59970;SDS011;45825;45.434;9.116;2022-12-18T04:07:09;60.17;;;32.95;;
59970;SDS011;45825;45.434;9.116;2022-12-18T04:09:35;68.43;;;31.90;;
59970;SDS011;45825;45.434;9.116;2022-12-18T04:12:03;62.03;;;31.25;;
59970;SDS011;45825;45.434;9.116;2022-12-18T04:14:29;58.53;;;31.85;;
59970;SDS011;45825;45.434;9.116;2022-12-18T04:16:54;66.85;;;34.05;;
59970;SDS011;45825;45.434;9.116;2022-12-18T04:19:19;67.35;;;32.83;;
59970;SDS011;45825;45.434;9.116;2022-12-18T04:21:45;64.60;;;33.88;;
59970;SDS011;45825;45.434;9.116;2022-12-18T04:24:10;73.43;;;35.30;;
59970;SDS011;45825;45.434;9.116;2022-12-18T04:26:35;83.95;;;34.35;;
59970;SDS011;45825;45.434;9.116;2022-12-18T04:29:00;75.13;;;33.45;;
59970;SDS011;45825;45.434;9.116;2022-12-18T04:31:26;71.60;;;34.13;;
59970;SDS011;45825;45.434;9.116;2022-12-18T04:33:51;74.43;;;34.90;;
59970;SDS011;45825;45.434;9.116;2022-12-18T04:36:17;67.25;;;33.88;;
59970;SDS011;45825;45.434;9.116;2022-12-18T04:38:42;78.90;;;34.47;;
59970;SDS011;45825;45.434;9.116;2022-12-18T04:41:08;74.30;;;35.92;;
59970;SDS011;45825;45.434;9.116;2022-12-18T04:43:33;78.32;;;34.38;;
59970;SDS011;45825;45.434;9.116;2022-12-18T04:46:05;71.68;;;33.90;;
59970;SDS011;45825;45.434;9.116;2022-12-18T04:48:31;109.57;;;35.67;;
59970;SDS011;45825;45.434;9.116;2022-12-18T04:50:57;62.85;;;32.58;;
59970;SDS011;45825;45.434;9.116;2022-12-18T04:53:22;67.05;;;33.63;;
59970;SDS011;45825;45.434;9.116;2022-12-18T04:55:47;63.58;;;33.72;;
59970;SDS011;45825;45.434;9.116;2022-12-18T04:58:13;69.60;;;33.72;;
59970;SDS011;45825;45.434;9.116;2022-12-18T05:00:38;68.35;;;34.85;;
59970;SDS011;45825;45.434;9.116;2022-12-18T05:03:03;76.88;;;35.03;;
59970;SDS011;45825;45.434;9.116;2022-12-18T05:05:28;74.22;;;34.58;;
59970;SDS011;45825;45.434;9.116;2022-12-18T05:07:54;81.05;;;33.80;;
59970;SDS011;45825;45.434;9.116;2022-12-18T05:10:19;77.22;;;32.92;;
59970;SDS011;45825;45.434;9.116;2022-12-18T05:12:44;73.63;;;35.30;;
59970;SDS011;45825;45.434;9.116;2022-12-18T05:15:28;73.68;;;34.67;;
59970;SDS011;45825;45.434;9.116;2022-12-18T05:17:55;77.22;;;35.13;;
59970;SDS011;45825;45.434;9.116;2022-12-18T05:20:21;72.70;;;33.15;;
59970;SDS011;45825;45.434;9.116;2022-12-18T05:22:46;77.68;;;34.15;;
59970;SDS011;45825;45.434;9.116;2022-12-18T05:25:12;75.05;;;35.10;;
59970;SDS011;45825;45.434;9.116;2022-12-18T05:27:37;72.68;;;34.97;;
59970;SDS011;45825;45.434;9.116;2022-12-18T05:30:02;71.47;;;32.78;;
59970;SDS011;45825;45.434;9.116;2022-12-18T05:32:28;72.43;;;33.90;;
59970;SDS011;45825;45.434;9.116;2022-12-18T05:34:53;75.05;;;34.55;;
59970;SDS011;45825;45.434;9.116;2022-12-18T05:37:19;80.72;;;34.63;;
59970;SDS011;45825;45.434;9.116;2022-12-18T05:39:44;73.80;;;34.33;;
59970;SDS011;45825;45.434;9.116;2022-12-18T05:42:09;79.68;;;33.65;;
59970;SDS011;45825;45.434;9.116;2022-12-18T05:44:35;72.95;;;32.53;;
59970;SDS011;45825;45.434;9.116;2022-12-18T05:47:00;73.97;;;33.40;;
59970;SDS011;45825;45.434;9.116;2022-12-18T05:49:25;76.20;;;34.80;;
59970;SDS011;45825;45.434;9.116;2022-12-18T05:51:51;78.40;;;34.45;;
59970;SDS011;45825;45.434;9.116;2022-12-18T05:54:16;70.43;;;32.95;;
59970;SDS011;45825;45.434;9.116;2022-12-18T05:56:41;82.53;;;33.45;;
59970;SDS011;45825;45.434;9.116;2022-12-18T05:59:07;68.75;;;32.88;;
59970;SDS011;45825;45.434;9.116;2022-12-18T06:01:32;68.03;;;32.63;;
59970;SDS011;45825;45.434;9.116;2022-12-18T06:03:57;64.28;;;31.08;;
59970;SDS011;45825;45.434;9.116;2022-12-18T06:06:23;66.63;;;30.98;;
59970;SDS011;45825;45.434;9.116;2022-12-18T06:08:51;69.10;;;31.90;;
59970;SDS011;45825;45.434;9.116;2022-12-18T06:11:18;63.15;;;31.67;;
59970;SDS011;45825;45.434;9.116;2022-12-18T06:13:45;71.28;;;32.65;;
59970;SDS011;45825;45.434;9.116;2022-12-18T06:16:11;64.75;;;32.20;;
59970;SDS011;45825;45.434;9.116;2022-12-18T06:18:36;68.18;;;32.35;;
59970;SDS011;45825;45.434;9.116;2022-12-18T06:21:02;70.07;;;32.78;;
59970;SDS011;45825;45.434;9.116;2022-12-18T06:23:27;66.57;;;31.63;;
59970;SDS011;45825;45.434;9.116;2022-12-18T06:25:53;66.40;;;31.98;;
59970;SDS011;45825;45.434;9.116;2022-12-18T06:28:18;69.53;;;30.10;;
59970;SDS011;45825;45.434;9.116;2022-12-18T06:30:45;80.97;;;31.75;;
59970;SDS011;45825;45.434;9.116;2022-12-18T06:33:12;65.10;;;32.00;;
59970;SDS011;45825;45.434;9.116;2022-12-18T06:35:37;65.43;;;31.73;;
59970;SDS011;45825;45.434;9.116;2022-12-18T06:38:02;65.35;;;33.25;;
59970;SDS011;45825;45.434;9.116;2022-12-18T06:40:28;66.22;;;31.83;;
59970;SDS011;45825;45.434;9.116;2022-12-18T06:42:54;66.72;;;32.45;;
59970;SDS011;45825;45.434;9.116;2022-12-18T06:45:19;62.33;;;30.70;;
59970;SDS011;45825;45.434;9.116;2022-12-18T06:47:44;91.43;;;32.30;;
59970;SDS011;45825;45.434;9.116;2022-12-18T06:50:10;79.15;;;31.15;;
59970;SDS011;45825;45.434;9.116;2022-12-18T06:52:37;94.45;;;30.88;;
59970;SDS011;45825;45.434;9.116;2022-12-18T06:55:04;76.57;;;31.75;;
59970;SDS011;45825;45.434;9.116;2022-12-18T06:57:29;75.78;;;30.67;;
59970;SDS011;45825;45.434;9.116;2022-12-18T06:59:55;75.35;;;30.20;;
59970;SDS011;45825;45.434;9.116;2022-12-18T07:02:20;80.50;;;31.50;;
59970;SDS011;45825;45.434;9.116;2022-12-18T07:04:45;78.97;;;31.90;;
59970;SDS011;45825;45.434;9.116;2022-12-18T07:07:11;98.22;;;32.05;;
59970;SDS011;45825;45.434;9.116;2022-12-18T07:09:36;86.70;;;32.08;;
59970;SDS011;45825;45.434;9.116;2022-12-18T07:12:01;92.30;;;32.05;;
59970;SDS011;45825;45.434;9.116;2022-12-18T07:14:27;83.88;;;31.92;;
59970;SDS011;45825;45.434;9.116;2022-12-18T07:16:53;94.40;;;32.13;;
59970;SDS011;45825;45.434;9.116;2022-12-18T07:19:19;79.43;;;32.55;;
59970;SDS011;45825;45.434;9.116;2022-12-18T07:21:44;73.72;;;33.28;;
59970;SDS011;45825;45.434;9.116;2022-12-18T07:24:10;80.85;;;33.33;;
59970;SDS011;45825;45.434;9.116;2022-12-18T07:26:35;106.68;;;33.13;;
59970;SDS011;45825;45.434;9.116;2022-12-18T07:29:00;77.57;;;33.17;;
59970;SDS011;45825;45.434;9.116;2022-12-18T07:31:27;77.35;;;33.83;;
59970;SDS011;45825;45.434;9.116;2022-12-18T07:33:52;75.82;;;32.50;;
59970;SDS011;45825;45.434;9.116;2022-12-18T07:36:18;86.25;;;34.35;;
59970;SDS011;45825;45.434;9.116;2022-12-18T07:38:46;71.90;;;32.38;;
59970;SDS011;45825;45.434;9.116;2022-12-18T07:41:12;79.55;;;35.17;;
59970;SDS011;45825;45.434;9.116;2022-12-18T07:43:38;74.80;;;32.45;;
59970;SDS011;45825;45.434;9.116;2022-12-18T07:46:04;84.03;;;33.75;;
59970;SDS011;45825;45.434;9.116;2022-12-18T07:48:30;67.60;;;33.72;;
59970;SDS011;45825;45.434;9.116;2022-12-18T07:50:59;118.47;;;33.15;;
59970;SDS011;45825;45.434;9.116;2022-12-18T07:53:25;74.95;;;33.75;;
59970;SDS011;45825;45.434;9.116;2022-12-18T07:55:57;78.95;;;32.63;;
59970;SDS011;45825;45.434;9.116;2022-12-18T07:58:23;81.90;;;32.85;;
59970;SDS011;45825;45.434;9.116;2022-12-18T08:00:49;77.18;;;32.22;;
59970;SDS011;45825;45.434;9.116;2022-12-18T08:03:14;82.38;;;33.22;;
59970;SDS011;45825;45.434;9.116;2022-12-18T08:05:40;79.57;;;35.55;;
59970;SDS011;45825;45.434;9.116;2022-12-18T08:08:05;74.45;;;35.20;;
59970;SDS011;45825;45.434;9.116;2022-12-18T08:10:31;84.68;;;36.17;;
59970;SDS011;45825;45.434;9.116;2022-12-18T08:12:56;68.07;;;35.38;;
59970;SDS011;45825;45.434;9.116;2022-12-18T08:15:21;82.82;;;35.80;;
59970;SDS011;45825;45.434;9.116;2022-12-18T08:17:47;63.97;;;35.45;;
59970;SDS011;45825;45.434;9.116;2022-12-18T08:20:12;76.75;;;35.40;;
59970;SDS011;45825;45.434;9.116;2022-12-18T08:22:39;70.80;;;38.03;;
59970;SDS011;45825;45.434;9.116;2022-12-18T08:25:06;77.80;;;37.72;;
59970;SDS011;45825;45.434;9.116;2022-12-18T08:27:32;72.07;;;37.05;;
59970;SDS011;45825;45.434;9.116;2022-12-18T08:29:57;82.90;;;37.97;;
59970;SDS011;45825;45.434;9.116;2022-12-18T08:32:23;86.68;;;37.67;;
59970;SDS011;45825;45.434;9.116;2022-12-18T08:34:50;76.65;;;36.22;;
59970;SDS011;45825;45.434;9.116;2022-12-18T08:37:15;75.80;;;35.67;;
59970;SDS011;45825;45.434;9.116;2022-12-18T08:39:40;80.60;;;36.90;;
59970;SDS011;45825;45.434;9.116;2022-12-18T08:42:06;81.45;;;38.15;;
59970;SDS011;45825;45.434;9.116;2022-12-18T08:44:50;72.72;;;34.63;;
59970;SDS011;45825;45.434;9.116;2022-12-18T08:47:15;71.93;;;33.78;;
59970;SDS011;45825;45.434;9.116;2022-12-18T08:49:40;63.67;;;35.92;;
59970;SDS011;45825;45.434;9.116;2022-12-18T08:52:05;65.30;;;32.72;;
59970;SDS011;45825;45.434;9.116;2022-12-18T08:54:31;70.03;;;33.58;;
59970;SDS011;45825;45.434;9.116;2022-12-18T08:56:56;71.70;;;34.13;;
59970;SDS011;45825;45.434;9.116;2022-12-18T08:59:21;68.50;;;34.03;;
59970;SDS011;45825;45.434;9.116;2022-12-18T09:01:48;69.35;;;34.58;;
59970;SDS011;45825;45.434;9.116;2022-12-18T09:04:13;88.22;;;34.85;;
59970;SDS011;45825;45.434;9.116;2022-12-18T09:06:39;67.78;;;35.72;;
59970;SDS011;45825;45.434;9.116;2022-12-18T09:09:04;71.43;;;35.20;;
59970;SDS011;45825;45.434;9.116;2022-12-18T09:11:30;69.32;;;34.28;;
59970;SDS011;45825;45.434;9.116;2022-12-18T09:13:57;70.75;;;36.83;;
59970;SDS011;45825;45.434;9.116;2022-12-18T09:16:23;67.70;;;36.05;;
59970;SDS011;45825;45.434;9.116;2022-12-18T09:18:50;60.58;;;33.92;;
59970;SDS011;45825;45.434;9.116;2022-12-18T09:21:16;60.88;;;33.50;;
59970;SDS011;45825;45.434;9.116;2022-12-18T09:23:52;68.28;;;32.58;;
59970;SDS011;45825;45.434;9.116;2022-12-18T09:26:19;59.33;;;31.80;;
59970;SDS011;45825;45.434;9.116;2022-12-18T09:28:45;64.25;;;33.35;;
59970;SDS011;45825;45.434;9.116;2022-12-18T09:31:11;62.00;;;33.80;;
59970;SDS011;45825;45.434;9.116;2022-12-18T09:33:37;60.88;;;33.17;;
59970;SDS011;45825;45.434;9.116;2022-12-18T09:36:04;55.13;;;31.60;;
59970;SDS011;45825;45.434;9.116;2022-12-18T09:38:31;57.38;;;32.70;;
59970;SDS011;45825;45.434;9.116;2022-12-18T09:40:59;60.72;;;33.22;;
59970;SDS011;45825;45.434;9.116;2022-12-18T09:43:45;66.25;;;34.65;;
59970;SDS011;45825;45.434;9.116;2022-12-18T09:46:25;53.10;;;30.92;;
59970;SDS011;45825;45.434;9.116;2022-12-18T09:48:54;53.03;;;30.67;;
59970;SDS011;45825;45.434;9.116;2022-12-18T09:51:26;54.60;;;30.17;;
59970;SDS011;45825;45.434;9.116;2022-12-18T09:54:05;53.67;;;30.73;;
59970;SDS011;45825;45.434;9.116;2022-12-18T09:59:04;50.55;;;28.77;;
59970;SDS011;45825;45.434;9.116;2022-12-18T10:01:31;50.92;;;30.10;;
59970;SDS011;45825;45.434;9.116;2022-12-18T10:03:57;51.47;;;30.05;;
59970;SDS011;45825;45.434;9.116;2022-12-18T10:06:26;47.03;;;29.17;;
59970;SDS011;45825;45.434;9.116;2022-12-18T10:11:57;55.13;;;32.05;;
59970;SDS011;45825;45.434;9.116;2022-12-18T10:14:36;53.10;;;30.88;;
59970;SDS011;45825;45.434;9.116;2022-12-18T10:19:44;50.58;;;29.55;;
59970;SDS011;45825;45.434;9.116;2022-12-18T10:22:28;50.08;;;29.17;;
59970;SDS011;45825;45.434;9.116;2022-12-18T17:18:56;87.18;;;43.95;;
59970;SDS011;45825;45.434;9.116;2022-12-18T17:21:22;84.18;;;47.13;;
59970;SDS011;45825;45.434;9.116;2022-12-18T17:23:47;78.88;;;44.58;;
59970;SDS011;45825;45.434;9.116;2022-12-18T17:26:12;76.03;;;44.53;;
59970;SDS011;45825;45.434;9.116;2022-12-18T17:28:38;90.95;;;48.22;;
59970;SDS011;45825;45.434;9.116;2022-12-18T17:31:11;91.63;;;47.35;;
59970;SDS011;45825;45.434;9.116;2022-12-18T17:33:38;97.57;;;48.25;;
59970;SDS011;45825;45.434;9.116;2022-12-18T17:36:04;96.80;;;48.30;;
59970;SDS011;45825;45.434;9.116;2022-12-18T17:38:30;89.85;;;45.38;;
59970;SDS011;45825;45.434;9.116;2022-12-18T17:40:59;97.68;;;47.90;;
59970;SDS011;45825;45.434;9.116;2022-12-18T17:43:28;83.65;;;45.50;;
59970;SDS011;45825;45.434;9.116;2022-12-18T17:45:54;91.97;;;44.20;;
59970;SDS011;45825;45.434;9.116;2022-12-18T17:48:20;83.13;;;42.30;;
59970;SDS011;45825;45.434;9.116;2022-12-18T17:50:45;86.40;;;44.85;;
59970;SDS011;45825;45.434;9.116;2022-12-18T17:53:11;85.32;;;44.17;;
59970;SDS011;45825;45.434;9.116;2022-12-18T17:55:36;81.15;;;42.08;;
59970;SDS011;45825;45.434;9.116;2022-12-18T17:58:01;81.55;;;43.35;;
59970;SDS011;45825;45.434;9.116;2022-12-18T18:00:27;80.45;;;43.72;;
59970;SDS011;45825;45.434;9.116;2022-12-18T18:02:53;76.82;;;43.33;;
59970;SDS011;45825;45.434;9.116;2022-12-18T18:05:18;82.80;;;45.30;;
59970;SDS011;45825;45.434;9.116;2022-12-18T18:07:44;78.68;;;43.15;;
59970;SDS011;45825;45.434;9.116;2022-12-18T18:10:09;70.78;;;41.90;;
59970;SDS011;45825;45.434;9.116;2022-12-18T18:12:35;75.55;;;45.38;;
59970;SDS011;45825;45.434;9.116;2022-12-18T18:15:19;73.93;;;42.75;;
59970;SDS011;45825;45.434;9.116;2022-12-18T18:17:45;75.28;;;43.35;;
59970;SDS011;45825;45.434;9.116;2022-12-18T18:20:10;80.20;;;44.45;;
59970;SDS011;45825;45.434;9.116;2022-12-18T18:22:36;78.53;;;44.92;;
59970;SDS011;45825;45.434;9.116;2022-12-18T18:25:01;82.00;;;45.83;;
59970;SDS011;45825;45.434;9.116;2022-12-18T18:27:27;83.60;;;45.97;;
59970;SDS011;45825;45.434;9.116;2022-12-18T18:29:54;82.15;;;45.50;;
59970;SDS011;45825;45.434;9.116;2022-12-18T18:32:20;78.40;;;46.53;;
59970;SDS011;45825;45.434;9.116;2022-12-18T18:34:45;84.88;;;46.25;;
59970;SDS011;45825;45.434;9.116;2022-12-18T18:37:11;87.30;;;46.13;;
59970;SDS011;45825;45.434;9.116;2022-12-18T18:39:37;87.60;;;45.63;;
59970;SDS011;45825;45.434;9.116;2022-12-18T18:42:02;90.25;;;47.30;;
59970;SDS011;45825;45.434;9.116;2022-12-18T18:44:27;90.90;;;45.97;;
59970;SDS011;45825;45.434;9.116;2022-12-18T18:46:53;81.47;;;43.95;;
59970;SDS011;45825;45.434;9.116;2022-12-18T18:49:19;86.13;;;43.25;;
59970;SDS011;45825;45.434;9.116;2022-12-18T18:51:45;76.75;;;43.25;;
59970;SDS011;45825;45.434;9.116;2022-12-18T18:54:10;78.72;;;43.00;;
59970;SDS011;45825;45.434;9.116;2022-12-18T18:56:36;82.72;;;44.58;;
59970;SDS011;45825;45.434;9.116;2022-12-18T18:59:01;86.07;;;47.38;;
59970;SDS011;45825;45.434;9.116;2022-12-18T19:01:26;82.07;;;43.83;;
59970;SDS011;45825;45.434;9.116;2022-12-18T19:03:52;79.03;;;43.65;;
59970;SDS011;45825;45.434;9.116;2022-12-18T19:06:22;81.00;;;44.83;;
59970;SDS011;45825;45.434;9.116;2022-12-18T19:08:51;81.82;;;42.72;;
59970;SDS011;45825;45.434;9.116;2022-12-18T19:11:17;79.10;;;42.40;;
59970;SDS011;45825;45.434;9.116;2022-12-18T19:14:03;83.30;;;44.80;;
59970;SDS011;45825;45.434;9.116;2022-12-18T19:16:30;83.18;;;44.13;;
59970;SDS011;45825;45.434;9.116;2022-12-18T19:18:56;78.03;;;43.28;;
59970;SDS011;45825;45.434;9.116;2022-12-18T19:21:21;80.57;;;42.85;;
59970;SDS011;45825;45.434;9.116;2022-12-18T19:23:48;79.47;;;42.65;;
59970;SDS011;45825;45.434;9.116;2022-12-18T19:26:14;75.18;;;42.08;;
59970;SDS011;45825;45.434;9.116;2022-12-18T19:28:40;76.75;;;42.47;;
59970;SDS011;45825;45.434;9.116;2022-12-18T19:31:07;77.93;;;44.25;;
59970;SDS011;45825;45.434;9.116;2022-12-18T19:33:35;81.43;;;43.22;;
59970;SDS011;45825;45.434;9.116;2022-12-18T19:36:17;82.78;;;44.45;;
59970;SDS011;45825;45.434;9.116;2022-12-18T19:38:43;85.10;;;44.75;;
59970;SDS011;45825;45.434;9.116;2022-12-18T19:41:08;88.03;;;47.20;;
59970;SDS011;45825;45.434;9.116;2022-12-18T19:43:36;86.90;;;43.83;;
59970;SDS011;45825;45.434;9.116;2022-12-18T19:46:03;84.22;;;45.35;;
59970;SDS011;45825;45.434;9.116;2022-12-18T19:48:30;92.85;;;47.88;;
59970;SDS011;45825;45.434;9.116;2022-12-18T19:50:56;93.00;;;48.08;;
59970;SDS011;45825;45.434;9.116;2022-12-18T19:53:22;87.68;;;45.38;;
59970;SDS011;45825;45.434;9.116;2022-12-18T19:55:47;83.72;;;45.30;;
59970;SDS011;45825;45.434;9.116;2022-12-18T19:58:12;79.60;;;44.42;;
59970;SDS011;45825;45.434;9.116;2022-12-18T20:00:37;87.25;;;45.30;;
59970;SDS011;45825;45.434;9.116;2022-12-18T20:03:03;89.03;;;45.05;;
59970;SDS011;45825;45.434;9.116;2022-12-18T20:05:28;81.88;;;44.13;;
59970;SDS011;45825;45.434;9.116;2022-12-18T20:07:54;83.70;;;42.70;;
59970;SDS011;45825;45.434;9.116;2022-12-18T20:10:19;79.28;;;42.92;;
59970;SDS011;45825;45.434;9.116;2022-12-18T20:12:45;82.68;;;42.13;;
59970;SDS011;45825;45.434;9.116;2022-12-18T20:15:11;82.95;;;43.85;;
59970;SDS011;45825;45.434;9.116;2022-12-18T20:17:36;83.93;;;43.00;;
59970;SDS011;45825;45.434;9.116;2022-12-18T20:20:02;82.15;;;42.95;;
59970;SDS011;45825;45.434;9.116;2022-12-18T20:22:28;78.32;;;42.47;;
59970;SDS011;45825;45.434;9.116;2022-12-18T20:24:53;73.28;;;40.30;;
59970;SDS011;45825;45.434;9.116;2022-12-18T20:27:19;78.10;;;42.78;;
59970;SDS011;45825;45.434;9.116;2022-12-18T20:29:44;80.40;;;41.60;;
59970;SDS011;45825;45.434;9.116;2022-12-18T20:32:09;77.82;;;40.58;;
59970;SDS011;45825;45.434;9.116;2022-12-18T20:34:35;77.30;;;40.97;;
59970;SDS011;45825;45.434;9.116;2022-12-18T20:37:00;76.75;;;40.13;;
59970;SDS011;45825;45.434;9.116;2022-12-18T20:39:26;80.85;;;41.33;;
59970;SDS011;45825;45.434;9.116;2022-12-18T20:41:51;83.68;;;41.58;;
59970;SDS011;45825;45.434;9.116;2022-12-18T20:44:17;82.57;;;41.67;;
59970;SDS011;45825;45.434;9.116;2022-12-18T20:46:43;84.55;;;41.85;;
59970;SDS011;45825;45.434;9.116;2022-12-18T20:49:09;82.25;;;42.72;;
59970;SDS011;45825;45.434;9.116;2022-12-18T20:51:34;79.07;;;41.70;;
59970;SDS011;45825;45.434;9.116;2022-12-18T20:54:00;84.18;;;40.03;;
59970;SDS011;45825;45.434;9.116;2022-12-18T20:56:26;79.43;;;40.80;;
59970;SDS011;45825;45.434;9.116;2022-12-18T20:58:55;83.05;;;41.88;;
59970;SDS011;45825;45.434;9.116;2022-12-18T21:01:22;75.65;;;40.00;;
59970;SDS011;45825;45.434;9.116;2022-12-18T21:03:48;80.85;;;39.85;;
59970;SDS011;45825;45.434;9.116;2022-12-18T21:06:15;80.15;;;41.22;;
59970;SDS011;45825;45.434;9.116;2022-12-18T21:08:42;81.13;;;39.45;;
59970;SDS011;45825;45.434;9.116;2022-12-18T21:13:56;67.70;;;34.40;;
59970;SDS011;45825;45.434;9.116;2022-12-18T21:16:21;70.95;;;36.47;;
59970;SDS011;45825;45.434;9.116;2022-12-18T21:18:47;75.90;;;35.60;;
59970;SDS011;45825;45.434;9.116;2022-12-18T21:21:12;66.13;;;34.42;;
59970;SDS011;45825;45.434;9.116;2022-12-18T21:23:39;72.10;;;35.80;;
59970;SDS011;45825;45.434;9.116;2022-12-18T21:26:20;132.05;;;68.43;;
59970;SDS011;45825;45.434;9.116;2022-12-18T21:28:51;110.63;;;60.45;;
59970;SDS011;45825;45.434;9.116;2022-12-18T21:31:18;70.32;;;35.58;;
59970;SDS011;45825;45.434;9.116;2022-12-18T21:33:43;71.68;;;34.92;;
59970;SDS011;45825;45.434;9.116;2022-12-18T21:36:09;73.07;;;37.00;;
59970;SDS011;45825;45.434;9.116;2022-12-18T21:38:34;69.30;;;33.22;;
59970;SDS011;45825;45.434;9.116;2022-12-18T21:41:04;74.30;;;36.28;;
59970;SDS011;45825;45.434;9.116;2022-12-18T21:43:31;74.75;;;36.28;;
59970;SDS011;45825;45.434;9.116;2022-12-18T21:46:15;76.97;;;37.40;;
59970;SDS011;45825;45.434;9.116;2022-12-18T21:48:41;79.97;;;39.35;;
59970;SDS011;45825;45.434;9.116;2022-12-18T21:51:07;77.20;;;37.28;;
59970;SDS011;45825;45.434;9.116;2022-12-18T21:53:33;78.78;;;37.65;;
59970;SDS011;45825;45.434;9.116;2022-12-18T21:55:58;79.03;;;37.20;;
59970;SDS011;45825;45.434;9.116;2022-12-18T21:58:24;80.57;;;38.17;;